sensor_id;sensor_type;location;lat;lon;timestamp;pressure;altitude;pressure_sealevel;temperature;humidity
12219;BME280;6172;42.646;23.344;2023-02-10T00:02:05;96344.59;;;-7.01;100.00
12219;BME280;6172;42.646;23.344;2023-02-10T00:04:35;96340.06;;;-7.15;100.00
12219;BME280;6172;42.646;23.344;2023-02-10T00:07:03;96340.59;;;-7.08;100.00
12219;BME280;6172;42.646;23.344;2023-02-10T00:09:34;96361.25;;;-7.00;100.00
12219;BME280;6172;42.646;23.344;2023-02-10T00:12:03;96342.41;;;-7.24;100.00
12219;BME280;6172;42.646;23.344;2023-02-10T00:14:39;96347.19;;;-7.21;100.00
12219;BME280;6172;42.646;23.344;2023-02-10T00:17:10;96345.00;;;-7.39;100.00
12219;BME280;6172;42.646;23.344;2023-02-10T00:19:41;96343.16;;;-7.48;100.00
12219;BME280;6172;42.646;23.344;2023-02-10T00:22:11;96350.06;;;-7.52;100.00
12219;BME280;6172;42.646;23.344;2023-02-10T00:24:39;96344.19;;;-7.59;100.00
12219;BME280;6172;42.646;23.344;2023-02-10T00:27:08;96343.91;;;-7.58;100.00
12219;BME280;6172;42.646;23.344;2023-02-10T00:29:35;96344.97;;;-7.59;100.00
12219;BME280;6172;42.646;23.344;2023-02-10T00:32:03;96340.97;;;-7.66;100.00
12219;BME280;6172;42.646;23.344;2023-02-10T00:34:33;96342.63;;;-7.55;100.00
12219;BME280;6172;42.646;23.344;2023-02-10T00:37:12;96344.44;;;-7.66;100.00
12219;BME280;6172;42.646;23.344;2023-02-10T00:39:45;96339.56;;;-7.89;100.00
12219;BME280;6172;42.646;23.344;2023-02-10T00:42:18;96337.44;;;-7.97;100.00
12219;BME280;6172;42.646;23.344;2023-02-10T00:44:51;96321.81;;;-7.93;100.00
12219;BME280;6172;42.646;23.344;2023-02-10T00:47:21;96327.34;;;-8.00;100.00
12219;BME280;6172;42.646;23.344;2023-02-10T00:49:51;96326.63;;;-7.85;100.00
12219;BME280;6172;42.646;23.344;2023-02-10T00:52:30;96330.56;;;-7.93;100.00
12219;BME280;6172;42.646;23.344;2023-02-10T00:54:58;96324.28;;;-7.77;100.00
12219;BME280;6172;42.646;23.344;2023-02-10T00:57:41;96318.47;;;-7.69;100.00
12219;BME280;6172;42.646;23.344;2023-02-10T01:00:09;96321.41;;;-7.60;100.00
12219;BME280;6172;42.646;23.344;2023-02-10T01:02:37;96314.28;;;-7.60;100.00
12219;BME280;6172;42.646;23.344;2023-02-10T01:05:08;96308.69;;;-7.68;100.00
12219;BME280;6172;42.646;23.344;2023-02-10T01:07:35;96314.25;;;-7.70;100.00
12219;BME280;6172;42.646;23.344;2023-02-10T01:10:02;96317.81;;;-8.06;100.00
12219;BME280;6172;42.646;23.344;2023-02-10T01:12:31;96310.50;;;-7.84;100.00
12219;BME280;6172;42.646;23.344;2023-02-10T01:15:00;96315.75;;;-7.94;100.00
12219;BME280;6172;42.646;23.344;2023-02-10T01:17:34;96307.72;;;-8.09;100.00
12219;BME280;6172;42.646;23.344;2023-02-10T01:20:09;96311.44;;;-8.10;100.00
12219;BME280;6172;42.646;23.344;2023-02-10T01:22:36;96309.94;;;-7.81;100.00
12219;BME280;6172;42.646;23.344;2023-02-10T01:25:06;96294.66;;;-7.74;100.00
12219;BME280;6172;42.646;23.344;2023-02-10T01:27:34;96297.84;;;-7.67;100.00
12219;BME280;6172;42.646;23.344;2023-02-10T01:30:04;96288.28;;;-7.78;100.00
12219;BME280;6172;42.646;23.344;2023-02-10T01:32:32;96285.09;;;-7.80;100.00
12219;BME280;6172;42.646;23.344;2023-02-10T01:35:01;96286.88;;;-8.05;100.00
12219;BME280;6172;42.646;23.344;2023-02-10T01:37:32;96284.94;;;-8.15;100.00
12219;BME280;6172;42.646;23.344;2023-02-10T01:40:15;96297.41;;;-8.15;100.00
12219;BME280;6172;42.646;23.344;2023-02-10T01:42:42;96289.19;;;-8.14;100.00
12219;BME280;6172;42.646;23.344;2023-02-10T01:45:30;96283.84;;;-8.24;100.00
12219;BME280;6172;42.646;23.344;2023-02-10T01:48:12;96277.81;;;-8.14;100.00
12219;BME280;6172;42.646;23.344;2023-02-10T01:50:42;96289.13;;;-8.24;100.00
12219;BME280;6172;42.646;23.344;2023-02-10T01:53:15;96278.03;;;-8.26;100.00
12219;BME280;6172;42.646;23.344;2023-02-10T01:55:46;96273.53;;;-8.25;100.00
12219;BME280;6172;42.646;23.344;2023-02-10T01:58:20;96271.16;;;-8.22;100.00
12219;BME280;6172;42.646;23.344;2023-02-10T02:01:14;96269.28;;;-8.26;100.00
12219;BME280;6172;42.646;23.344;2023-02-10T02:03:46;96260.59;;;-8.22;100.00
12219;BME280;6172;42.646;23.344;2023-02-10T02:06:28;96256.13;;;-8.16;100.00
12219;BME280;6172;42.646;23.344;2023-02-10T02:08:56;96259.53;;;-8.21;100.00
12219;BME280;6172;42.646;23.344;2023-02-10T02:14:37;96242.94;;;-8.11;100.00
12219;BME280;6172;42.646;23.344;2023-02-10T02:17:14;96241.53;;;-8.24;100.00
12219;BME280;6172;42.646;23.344;2023-02-10T02:23:34;96239.44;;;-8.22;100.00
12219;BME280;6172;42.646;23.344;2023-02-10T02:29:45;96235.72;;;-8.26;100.00
12219;BME280;6172;42.646;23.344;2023-02-10T02:35:09;96239.94;;;-8.30;100.00
12219;BME280;6172;42.646;23.344;2023-02-10T02:37:42;96243.09;;;-8.28;100.00
12219;BME280;6172;42.646;23.344;2023-02-10T02:40:49;96238.63;;;-8.22;100.00
12219;BME280;6172;42.646;23.344;2023-02-10T02:43:21;96244.69;;;-8.32;100.00
12219;BME280;6172;42.646;23.344;2023-02-10T02:46:01;96235.16;;;-8.28;100.00
12219;BME280;6172;42.646;23.344;2023-02-10T02:48:57;96243.59;;;-8.36;100.00
12219;BME280;6172;42.646;23.344;2023-02-10T02:51:48;96244.13;;;-8.34;100.00
12219;BME280;6172;42.646;23.344;2023-02-10T02:54:26;96241.47;;;-8.34;100.00
12219;BME280;6172;42.646;23.344;2023-02-10T02:57:10;96239.13;;;-8.30;100.00
12219;BME280;6172;42.646;23.344;2023-02-10T02:59:50;96218.31;;;-8.68;100.00
12219;BME280;6172;42.646;23.344;2023-02-10T03:02:36;96228.75;;;-8.42;100.00
12219;BME280;6172;42.646;23.344;2023-02-10T03:05:23;96235.88;;;-8.47;100.00
12219;BME280;6172;42.646;23.344;2023-02-10T03:17:39;96236.28;;;-8.70;100.00
12219;BME280;6172;42.646;23.344;2023-02-10T03:22:47;96235.56;;;-8.56;100.00
12219;BME280;6172;42.646;23.344;2023-02-10T04:49:41;96234.88;;;-8.83;100.00
12219;BME280;6172;42.646;23.344;2023-02-10T04:52:18;96234.34;;;-8.85;100.00
12219;BME280;6172;42.646;23.344;2023-02-10T05:05:50;96228.72;;;-8.93;100.00
12219;BME280;6172;42.646;23.344;2023-02-10T05:24:20;96258.28;;;-8.96;100.00
12219;BME280;6172;42.646;23.344;2023-02-10T05:26:51;96267.78;;;-9.00;100.00
12219;BME280;6172;42.646;23.344;2023-02-10T05:30:01;96280.00;;;-8.89;100.00
12219;BME280;6172;42.646;23.344;2023-02-10T05:33:04;96276.03;;;-8.92;100.00
12219;BME280;6172;42.646;23.344;2023-02-10T05:35:49;96284.75;;;-8.91;100.00
12219;BME280;6172;42.646;23.344;2023-02-10T05:38:34;96291.06;;;-8.92;100.00
12219;BME280;6172;42.646;23.344;2023-02-10T05:41:18;96290.88;;;-8.86;100.00
12219;BME280;6172;42.646;23.344;2023-02-10T06:20:29;96312.88;;;-9.07;100.00
12219;BME280;6172;42.646;23.344;2023-02-10T06:22:58;96318.22;;;-9.02;100.00
12219;BME280;6172;42.646;23.344;2023-02-10T06:25:39;96308.88;;;-9.14;100.00
12219;BME280;6172;42.646;23.344;2023-02-10T06:28:11;96313.59;;;-8.85;100.00
12219;BME280;6172;42.646;23.344;2023-02-10T06:30:43;96324.41;;;-8.86;100.00
12219;BME280;6172;42.646;23.344;2023-02-10T06:33:32;96329.28;;;-8.68;100.00
12219;BME280;6172;42.646;23.344;2023-02-10T06:36:35;96330.66;;;-8.61;100.00
12219;BME280;6172;42.646;23.344;2023-02-10T06:42:29;96324.94;;;-8.06;100.00
12219;BME280;6172;42.646;23.344;2023-02-10T06:44:56;96319.13;;;-7.02;100.00
12219;BME280;6172;42.646;23.344;2023-02-10T06:47:37;96324.91;;;-6.19;100.00
12219;BME280;6172;42.646;23.344;2023-02-10T06:50:05;96316.31;;;-5.76;100.00
12219;BME280;6172;42.646;23.344;2023-02-10T06:52:34;96319.88;;;-4.99;100.00
12219;BME280;6172;42.646;23.344;2023-02-10T06:55:04;96315.50;;;-3.94;91.27
12219;BME280;6172;42.646;23.344;2023-02-10T06:57:32;96326.28;;;-4.04;83.36
12219;BME280;6172;42.646;23.344;2023-02-10T06:59:59;96325.72;;;-4.01;81.39
12219;BME280;6172;42.646;23.344;2023-02-10T07:02:26;96324.19;;;-2.99;77.10
12219;BME280;6172;42.646;23.344;2023-02-10T07:04:56;96327.09;;;-3.14;72.27
12219;BME280;6172;42.646;23.344;2023-02-10T07:07:24;96319.72;;;-2.67;68.79
12219;BME280;6172;42.646;23.344;2023-02-10T07:09:57;96317.00;;;-2.99;67.52
12219;BME280;6172;42.646;23.344;2023-02-10T07:12:25;96309.22;;;-2.77;66.74
12219;BME280;6172;42.646;23.344;2023-02-10T07:14:56;96318.84;;;-2.99;65.39
12219;BME280;6172;42.646;23.344;2023-02-10T07:17:46;96310.81;;;-2.44;66.22
12219;BME280;6172;42.646;23.344;2023-02-10T07:20:53;96309.50;;;-2.46;62.66
12219;BME280;6172;42.646;23.344;2023-02-10T07:23:58;96310.97;;;-2.54;63.85
12219;BME280;6172;42.646;23.344;2023-02-10T07:27:16;96312.34;;;-2.75;64.34
12219;BME280;6172;42.646;23.344;2023-02-10T07:30:03;96304.38;;;-2.11;63.84
12219;BME280;6172;42.646;23.344;2023-02-10T07:32:49;96304.97;;;-2.14;61.85
12219;BME280;6172;42.646;23.344;2023-02-10T07:35:42;96315.31;;;-2.26;62.16
12219;BME280;6172;42.646;23.344;2023-02-10T07:38:12;96300.75;;;-1.88;61.96
12219;BME280;6172;42.646;23.344;2023-02-10T07:40:46;96311.28;;;-2.10;60.97
12219;BME280;6172;42.646;23.344;2023-02-10T07:43:22;96299.81;;;-2.10;61.40
12219;BME280;6172;42.646;23.344;2023-02-10T07:46:07;96309.16;;;-3.51;64.24
12219;BME280;6172;42.646;23.344;2023-02-10T07:48:52;96303.03;;;-2.91;66.75
12219;BME280;6172;42.646;23.344;2023-02-10T07:51:23;96299.63;;;-2.14;64.10
12219;BME280;6172;42.646;23.344;2023-02-10T07:54:05;96301.22;;;-1.58;61.32
12219;BME280;6172;42.646;23.344;2023-02-10T07:56:34;96302.44;;;-1.64;59.01
12219;BME280;6172;42.646;23.344;2023-02-10T07:59:05;96313.19;;;-1.97;59.87
12219;BME280;6172;42.646;23.344;2023-02-10T08:01:37;96318.56;;;-1.29;59.41
12219;BME280;6172;42.646;23.344;2023-02-10T08:04:07;96308.53;;;-1.23;58.33
12219;BME280;6172;42.646;23.344;2023-02-10T08:07:10;96313.28;;;-1.07;56.91
12219;BME280;6172;42.646;23.344;2023-02-10T08:09:52;96305.91;;;-1.50;56.60
12219;BME280;6172;42.646;23.344;2023-02-10T08:12:29;96312.09;;;-1.14;55.73
12219;BME280;6172;42.646;23.344;2023-02-10T08:14:59;96306.69;;;-0.87;55.44
12219;BME280;6172;42.646;23.344;2023-02-10T08:17:27;96297.44;;;-0.59;54.98
12219;BME280;6172;42.646;23.344;2023-02-10T08:19:58;96300.59;;;-0.79;54.45
12219;BME280;6172;42.646;23.344;2023-02-10T08:22:25;96302.06;;;-0.73;55.61
12219;BME280;6172;42.646;23.344;2023-02-10T08:25:03;96296.25;;;-0.53;54.39
12219;BME280;6172;42.646;23.344;2023-02-10T08:27:44;96301.97;;;-0.24;52.86
12219;BME280;6172;42.646;23.344;2023-02-10T08:30:14;96307.03;;;-0.67;53.01
12219;BME280;6172;42.646;23.344;2023-02-10T08:32:41;96304.66;;;-0.68;53.31
12219;BME280;6172;42.646;23.344;2023-02-10T08:35:08;96294.31;;;-0.39;52.21
12219;BME280;6172;42.646;23.344;2023-02-10T08:37:38;96303.22;;;-0.22;51.57
12219;BME280;6172;42.646;23.344;2023-02-10T08:40:05;96294.63;;;-0.10;51.96
12219;BME280;6172;42.646;23.344;2023-02-10T08:42:33;96295.16;;;0.00;50.76
12219;BME280;6172;42.646;23.344;2023-02-10T08:45:00;96292.25;;;-1.00;50.97
12219;BME280;6172;42.646;23.344;2023-02-10T08:47:29;96291.00;;;-0.36;50.58
12219;BME280;6172;42.646;23.344;2023-02-10T08:49:56;96299.50;;;0.18;50.13
12219;BME280;6172;42.646;23.344;2023-02-10T08:52:26;96297.94;;;0.17;48.82
12219;BME280;6172;42.646;23.344;2023-02-10T08:54:53;96291.03;;;-0.06;49.73
12219;BME280;6172;42.646;23.344;2023-02-10T08:57:22;96293.16;;;-0.16;49.25
12219;BME280;6172;42.646;23.344;2023-02-10T08:59:51;96277.09;;;0.14;49.41
12219;BME280;6172;42.646;23.344;2023-02-10T09:02:17;96283.06;;;0.50;48.52
12219;BME280;6172;42.646;23.344;2023-02-10T09:04:46;96281.13;;;-0.05;48.71
12219;BME280;6172;42.646;23.344;2023-02-10T09:07:18;96290.88;;;-0.31;49.42
12219;BME280;6172;42.646;23.344;2023-02-10T09:09:48;96283.59;;;0.22;48.87
12219;BME280;6172;42.646;23.344;2023-02-10T09:12:17;96284.63;;;0.04;49.19
12219;BME280;6172;42.646;23.344;2023-02-10T09:14:59;96278.84;;;0.58;47.91
12219;BME280;6172;42.646;23.344;2023-02-10T09:17:27;96282.28;;;0.50;48.38
12219;BME280;6172;42.646;23.344;2023-02-10T09:19:56;96272.00;;;0.43;47.70
12219;BME280;6172;42.646;23.344;2023-02-10T09:22:23;96267.34;;;0.74;46.94
12219;BME280;6172;42.646;23.344;2023-02-10T09:24:51;96271.31;;;0.77;46.97
12219;BME280;6172;42.646;23.344;2023-02-10T09:27:19;96265.03;;;0.90;46.30
12219;BME280;6172;42.646;23.344;2023-02-10T09:29:47;96268.47;;;0.82;46.22
12219;BME280;6172;42.646;23.344;2023-02-10T09:32:14;96264.50;;;0.71;46.37
12219;BME280;6172;42.646;23.344;2023-02-10T09:34:41;96273.91;;;1.25;46.52
12219;BME280;6172;42.646;23.344;2023-02-10T09:37:12;96257.94;;;1.20;45.23
12219;BME280;6172;42.646;23.344;2023-02-10T09:39:42;96250.28;;;0.70;45.71
12219;BME280;6172;42.646;23.344;2023-02-10T09:42:17;96249.94;;;0.46;46.69
12219;BME280;6172;42.646;23.344;2023-02-10T09:44:52;96256.47;;;0.71;46.06
12219;BME280;6172;42.646;23.344;2023-02-10T09:47:31;96233.44;;;1.04;45.28
12219;BME280;6172;42.646;23.344;2023-02-10T09:50:22;96250.66;;;1.46;44.94
12219;BME280;6172;42.646;23.344;2023-02-10T09:53:04;96244.75;;;1.69;43.86
12219;BME280;6172;42.646;23.344;2023-02-10T09:55:37;96249.72;;;1.25;44.73
12219;BME280;6172;42.646;23.344;2023-02-10T09:58:14;96240.06;;;1.07;44.51
12219;BME280;6172;42.646;23.344;2023-02-10T10:00:45;96233.69;;;1.71;43.80
12219;BME280;6172;42.646;23.344;2023-02-10T10:03:16;96236.50;;;1.83;43.32
12219;BME280;6172;42.646;23.344;2023-02-10T10:05:50;96233.78;;;2.00;42.95
12219;BME280;6172;42.646;23.344;2023-02-10T10:08:27;96218.84;;;2.19;42.42
12219;BME280;6172;42.646;23.344;2023-02-10T10:11:02;96207.88;;;1.87;42.78
12219;BME280;6172;42.646;23.344;2023-02-10T10:13:32;96218.19;;;2.22;43.18
12219;BME280;6172;42.646;23.344;2023-02-10T10:16:21;96215.78;;;2.29;42.53
12219;BME280;6172;42.646;23.344;2023-02-10T10:19:04;96208.44;;;2.38;42.34
12219;BME280;6172;42.646;23.344;2023-02-10T10:21:42;96204.75;;;2.22;41.05
12219;BME280;6172;42.646;23.344;2023-02-10T10:24:23;96203.91;;;2.30;42.23
12219;BME280;6172;42.646;23.344;2023-02-10T10:27:05;96202.09;;;2.72;41.94
12219;BME280;6172;42.646;23.344;2023-02-10T10:29:43;96203.06;;;2.67;41.38
12219;BME280;6172;42.646;23.344;2023-02-10T10:32:15;96199.25;;;2.68;41.10
12219;BME280;6172;42.646;23.344;2023-02-10T10:34:49;96193.16;;;3.00;40.24
12219;BME280;6172;42.646;23.344;2023-02-10T10:37:20;96192.38;;;2.79;40.42
12219;BME280;6172;42.646;23.344;2023-02-10T10:39:51;96182.25;;;3.17;39.79
12219;BME280;6172;42.646;23.344;2023-02-10T10:42:25;96179.63;;;3.09;40.63
12219;BME280;6172;42.646;23.344;2023-02-10T10:44:58;96176.28;;;3.45;40.49
12219;BME280;6172;42.646;23.344;2023-02-10T10:47:36;96185.22;;;3.69;40.65
12219;BME280;6172;42.646;23.344;2023-02-10T10:50:05;96180.50;;;3.66;39.71
12219;BME280;6172;42.646;23.344;2023-02-10T10:52:34;96177.47;;;3.56;41.18
12219;BME280;6172;42.646;23.344;2023-02-10T10:55:09;96176.91;;;3.29;40.15
12219;BME280;6172;42.646;23.344;2023-02-10T10:57:36;96171.34;;;2.93;40.18
12219;BME280;6172;42.646;23.344;2023-02-10T11:00:15;96167.78;;;3.01;39.94
12219;BME280;6172;42.646;23.344;2023-02-10T11:02:51;96158.88;;;2.89;40.93
12219;BME280;6172;42.646;23.344;2023-02-10T11:05:21;96163.03;;;3.07;40.12
12219;BME280;6172;42.646;23.344;2023-02-10T11:07:50;96167.66;;;3.18;39.72
12219;BME280;6172;42.646;23.344;2023-02-10T11:10:22;96151.81;;;3.50;39.20
12219;BME280;6172;42.646;23.344;2023-02-10T11:12:50;96153.09;;;3.76;38.51
12219;BME280;6172;42.646;23.344;2023-02-10T11:15:34;96152.56;;;2.64;40.18
12219;BME280;6172;42.646;23.344;2023-02-10T11:18:05;96142.78;;;3.33;40.30
12219;BME280;6172;42.646;23.344;2023-02-10T11:20:35;96151.88;;;3.29;40.25
12219;BME280;6172;42.646;23.344;2023-02-10T11:23:04;96149.81;;;3.26;39.61
12219;BME280;6172;42.646;23.344;2023-02-10T11:25:39;96140.84;;;3.22;39.57
12219;BME280;6172;42.646;23.344;2023-02-10T11:28:18;96140.47;;;2.29;41.54
12219;BME280;6172;42.646;23.344;2023-02-10T11:30:53;96139.44;;;2.42;41.28
12219;BME280;6172;42.646;23.344;2023-02-10T11:33:24;96127.28;;;2.77;41.95
12219;BME280;6172;42.646;23.344;2023-02-10T11:35:57;96132.09;;;2.92;40.71
12219;BME280;6172;42.646;23.344;2023-02-10T11:38:25;96127.75;;;2.79;40.25
12219;BME280;6172;42.646;23.344;2023-02-10T11:40:56;96125.75;;;3.09;40.41
12219;BME280;6172;42.646;23.344;2023-02-10T11:43:29;96126.44;;;2.85;41.05
12219;BME280;6172;42.646;23.344;2023-02-10T11:45:58;96116.78;;;2.84;40.70
12219;BME280;6172;42.646;23.344;2023-02-10T11:48:27;96118.97;;;3.23;40.75
12219;BME280;6172;42.646;23.344;2023-02-10T11:51:03;96122.19;;;3.17;41.99
12219;BME280;6172;42.646;23.344;2023-02-10T11:53:33;96117.78;;;3.45;40.80
12219;BME280;6172;42.646;23.344;2023-02-10T11:56:08;96122.47;;;3.36;40.45
12219;BME280;6172;42.646;23.344;2023-02-10T11:58:52;96107.38;;;3.56;40.57
12219;BME280;6172;42.646;23.344;2023-02-10T12:01:38;96110.75;;;3.65;40.10
12219;BME280;6172;42.646;23.344;2023-02-10T12:04:19;96106.53;;;3.31;39.32
12219;BME280;6172;42.646;23.344;2023-02-10T12:06:57;96102.97;;;3.06;39.78
12219;BME280;6172;42.646;23.344;2023-02-10T12:09:34;96099.47;;;3.39;40.18
12219;BME280;6172;42.646;23.344;2023-02-10T12:12:11;96095.53;;;3.36;39.91
12219;BME280;6172;42.646;23.344;2023-02-10T12:14:51;96095.19;;;3.37;40.23
12219;BME280;6172;42.646;23.344;2023-02-10T12:17:25;96085.34;;;3.54;40.08
12219;BME280;6172;42.646;23.344;2023-02-10T12:20:17;96081.44;;;3.75;39.47
12219;BME280;6172;42.646;23.344;2023-02-10T12:23:07;96080.84;;;3.58;38.92
12219;BME280;6172;42.646;23.344;2023-02-10T12:25:39;96076.19;;;3.22;39.57
12219;BME280;6172;42.646;23.344;2023-02-10T12:28:17;96080.09;;;3.24;40.14
12219;BME280;6172;42.646;23.344;2023-02-10T12:30:51;96074.81;;;3.85;38.93
12219;BME280;6172;42.646;23.344;2023-02-10T12:33:35;96071.09;;;4.01;39.06
12219;BME280;6172;42.646;23.344;2023-02-10T12:36:10;96078.53;;;3.80;38.65
12219;BME280;6172;42.646;23.344;2023-02-10T12:38:52;96066.94;;;3.80;38.18
12219;BME280;6172;42.646;23.344;2023-02-10T12:41:27;96063.13;;;3.69;38.13
12219;BME280;6172;42.646;23.344;2023-02-10T12:44:27;96067.91;;;3.39;39.40
12219;BME280;6172;42.646;23.344;2023-02-10T12:47:03;96063.50;;;3.34;38.97
12219;BME280;6172;42.646;23.344;2023-02-10T12:49:44;96061.19;;;3.00;39.67
12219;BME280;6172;42.646;23.344;2023-02-10T12:52:19;96050.47;;;3.12;40.02
12219;BME280;6172;42.646;23.344;2023-02-10T12:54:53;96065.97;;;3.15;40.03
12219;BME280;6172;42.646;23.344;2023-02-10T12:57:24;96066.81;;;2.95;39.80
12219;BME280;6172;42.646;23.344;2023-02-10T12:59:58;96069.66;;;3.23;38.33
12219;BME280;6172;42.646;23.344;2023-02-10T13:02:32;96046.91;;;3.45;38.28
12219;BME280;6172;42.646;23.344;2023-02-10T13:05:06;96070.38;;;3.32;39.49
12219;BME280;6172;42.646;23.344;2023-02-10T13:07:40;96067.78;;;3.23;39.74
12219;BME280;6172;42.646;23.344;2023-02-10T13:10:20;96069.19;;;2.76;39.68
12219;BME280;6172;42.646;23.344;2023-02-10T13:12:50;96068.22;;;2.19;41.00
12219;BME280;6172;42.646;23.344;2023-02-10T13:15:25;96068.78;;;2.45;40.90
12219;BME280;6172;42.646;23.344;2023-02-10T13:17:54;96072.22;;;2.13;40.23
12219;BME280;6172;42.646;23.344;2023-02-10T13:20:30;96073.66;;;2.31;40.53
12219;BME280;6172;42.646;23.344;2023-02-10T13:23:06;96064.47;;;2.53;40.10
12219;BME280;6172;42.646;23.344;2023-02-10T13:25:48;96066.09;;;2.86;39.30
12219;BME280;6172;42.646;23.344;2023-02-10T13:28:20;96072.16;;;2.42;39.59
12219;BME280;6172;42.646;23.344;2023-02-10T13:31:01;96063.97;;;2.59;40.29
12219;BME280;6172;42.646;23.344;2023-02-10T13:33:36;96068.63;;;3.03;39.18
12219;BME280;6172;42.646;23.344;2023-02-10T13:36:13;96063.94;;;3.12;38.43
12219;BME280;6172;42.646;23.344;2023-02-10T13:38:41;96063.94;;;3.12;38.30
12219;BME280;6172;42.646;23.344;2023-02-10T13:41:23;96057.75;;;2.79;39.08
12219;BME280;6172;42.646;23.344;2023-02-10T13:44:26;96060.91;;;2.81;39.48
12219;BME280;6172;42.646;23.344;2023-02-10T13:47:09;96053.66;;;2.94;40.00
12219;BME280;6172;42.646;23.344;2023-02-10T13:49:48;96057.34;;;2.89;39.67
12219;BME280;6172;42.646;23.344;2023-02-10T13:52:20;96058.81;;;2.66;39.91
12219;BME280;6172;42.646;23.344;2023-02-10T13:54:54;96057.31;;;2.57;39.45
12219;BME280;6172;42.646;23.344;2023-02-10T13:57:26;96057.91;;;2.62;40.36
12219;BME280;6172;42.646;23.344;2023-02-10T14:00:12;96056.69;;;2.39;41.18
12219;BME280;6172;42.646;23.344;2023-02-10T14:02:41;96059.53;;;2.75;40.85
12219;BME280;6172;42.646;23.344;2023-02-10T14:05:22;96059.81;;;2.62;40.17
12219;BME280;6172;42.646;23.344;2023-02-10T14:07:50;96063.97;;;2.59;40.44
12219;BME280;6172;42.646;23.344;2023-02-10T14:10:33;96060.00;;;2.57;40.40
12219;BME280;6172;42.646;23.344;2023-02-10T14:13:03;96064.50;;;2.32;40.58
12219;BME280;6172;42.646;23.344;2023-02-10T14:15:33;96070.91;;;2.40;41.06
12219;BME280;6172;42.646;23.344;2023-02-10T14:18:22;96056.34;;;2.20;41.19
12219;BME280;6172;42.646;23.344;2023-02-10T14:20:55;96065.53;;;2.40;41.20
12219;BME280;6172;42.646;23.344;2023-02-10T14:23:23;96059.50;;;2.43;42.45
12219;BME280;6172;42.646;23.344;2023-02-10T14:25:55;96056.34;;;2.20;42.03
12219;BME280;6172;42.646;23.344;2023-02-10T14:28:26;96057.84;;;2.09;42.51
12219;BME280;6172;42.646;23.344;2023-02-10T14:30:55;96049.47;;;1.82;42.29
12219;BME280;6172;42.646;23.344;2023-02-10T14:33:27;96060.16;;;1.90;42.70
12219;BME280;6172;42.646;23.344;2023-02-10T14:35:55;96043.78;;;1.83;42.64
12219;BME280;6172;42.646;23.344;2023-02-10T14:38:25;96043.50;;;1.76;42.34
12219;BME280;6172;42.646;23.344;2023-02-10T14:40:54;96047.97;;;1.64;43.09
12219;BME280;6172;42.646;23.344;2023-02-10T14:43:25;96042.19;;;1.82;42.97
12219;BME280;6172;42.646;23.344;2023-02-10T14:45:56;96057.53;;;2.02;42.91
12219;BME280;6172;42.646;23.344;2023-02-10T14:48:26;96037.91;;;2.10;42.44
12219;BME280;6172;42.646;23.344;2023-02-10T14:50:58;96047.09;;;2.09;43.07
12219;BME280;6172;42.646;23.344;2023-02-10T14:53:25;96046.47;;;2.04;43.00
12219;BME280;6172;42.646;23.344;2023-02-10T14:55:54;96051.19;;;1.86;43.09
12219;BME280;6172;42.646;23.344;2023-02-10T14:58:21;96041.91;;;1.75;43.75
12219;BME280;6172;42.646;23.344;2023-02-10T15:00:58;96052.69;;;1.67;44.09
12219;BME280;6172;42.646;23.344;2023-02-10T15:03:30;96052.63;;;1.55;44.52
12219;BME280;6172;42.646;23.344;2023-02-10T15:05:58;96047.44;;;1.41;44.56
12219;BME280;6172;42.646;23.344;2023-02-10T15:08:32;96053.69;;;1.16;45.55
12219;BME280;6172;42.646;23.344;2023-02-10T15:11:03;96044.44;;;0.97;46.02
12219;BME280;6172;42.646;23.344;2023-02-10T15:13:33;96049.22;;;0.74;46.66
12219;BME280;6172;42.646;23.344;2023-02-10T15:16:01;96047.94;;;0.89;46.28
12219;BME280;6172;42.646;23.344;2023-02-10T15:18:31;96050.94;;;0.87;46.18
12219;BME280;6172;42.646;23.344;2023-02-10T15:21:01;96055.34;;;0.83;46.37
12219;BME280;6172;42.646;23.344;2023-02-10T15:23:29;96057.28;;;0.74;46.23
12219;BME280;6172;42.646;23.344;2023-02-10T15:26:05;96060.72;;;0.74;46.67
12219;BME280;6172;42.646;23.344;2023-02-10T15:28:33;96063.75;;;0.64;47.14
12219;BME280;6172;42.646;23.344;2023-02-10T15:31:03;96062.50;;;0.36;47.94
12219;BME280;6172;42.646;23.344;2023-02-10T15:33:35;96055.84;;;0.17;48.51
12219;BME280;6172;42.646;23.344;2023-02-10T15:36:14;96073.69;;;0.30;48.76
12219;BME280;6172;42.646;23.344;2023-02-10T15:38:44;96071.00;;;0.30;49.19
12219;BME280;6172;42.646;23.344;2023-02-10T15:41:37;96068.81;;;0.40;49.15
12219;BME280;6172;42.646;23.344;2023-02-10T15:44:24;96078.72;;;0.23;49.22
12219;BME280;6172;42.646;23.344;2023-02-10T15:47:10;96074.91;;;0.07;50.00
12219;BME280;6172;42.646;23.344;2023-02-10T15:49:42;96075.53;;;-0.05;50.89
12219;BME280;6172;42.646;23.344;2023-02-10T15:52:10;96070.34;;;-0.10;51.35
12219;BME280;6172;42.646;23.344;2023-02-10T15:54:39;96084.34;;;-0.21;52.07
12219;BME280;6172;42.646;23.344;2023-02-10T15:57:10;96084.50;;;-0.18;51.00
12219;BME280;6172;42.646;23.344;2023-02-10T15:59:43;96088.59;;;-0.12;50.77
12219;BME280;6172;42.646;23.344;2023-02-10T16:02:16;96093.31;;;-0.17;50.96
12219;BME280;6172;42.646;23.344;2023-02-10T16:04:46;96095.47;;;-0.36;51.41
12219;BME280;6172;42.646;23.344;2023-02-10T16:07:18;96101.13;;;-0.38;52.08
12219;BME280;6172;42.646;23.344;2023-02-10T16:09:46;96083.78;;;-0.40;52.45
12219;BME280;6172;42.646;23.344;2023-02-10T16:12:13;96105.22;;;-0.40;52.63
12219;BME280;6172;42.646;23.344;2023-02-10T16:14:42;96083.13;;;-0.54;52.99
12219;BME280;6172;42.646;23.344;2023-02-10T16:17:11;96091.72;;;-0.66;53.28
12219;BME280;6172;42.646;23.344;2023-02-10T16:19:38;96107.50;;;-0.64;53.88
12219;BME280;6172;42.646;23.344;2023-02-10T16:22:08;96114.38;;;-0.72;54.07
12219;BME280;6172;42.646;23.344;2023-02-10T16:24:35;96122.94;;;-0.61;54.39
12219;BME280;6172;42.646;23.344;2023-02-10T16:27:03;96114.28;;;-0.58;54.78
12219;BME280;6172;42.646;23.344;2023-02-10T16:29:33;96118.31;;;-0.69;55.70
12219;BME280;6172;42.646;23.344;2023-02-10T16:32:01;96130.13;;;-0.70;56.32
12219;BME280;6172;42.646;23.344;2023-02-10T16:34:29;96130.28;;;-0.75;56.91
12219;BME280;6172;42.646;23.344;2023-02-10T16:36:56;96121.06;;;-0.91;57.42
12219;BME280;6172;42.646;23.344;2023-02-10T16:39:28;96134.28;;;-0.86;57.47